Navios Orbiter — HPWU — position and weather

sailwx.info

Track history (hours):
 
Tides and Currents Weather Stations Pressure Air Temp Water Temp Dewpoint Dewpoint Depression Visibility Wind Speed Wind Dir Waves Ship Positions

Navios Orbiter

Last reported at 2018-May-26 19:14 UTC. Time now 2018-Jun-23 10:06 UTC.
Position N 01°28' E 103°06'.
Warning: this ship's position is 27 days out of date.

Length 225 m; draft 14.2 m.

Type: Cargo ship. MMSI: 356276000.

Date/timePositionNaut miles runAvg speedWind from/ knotsBaromVisibWave heightAir tempDewpointWater temp
2018-May-26 19:14N 01°28' E 103°06'412.2
2018-May-26 18:55N 01°26' E 103°09'512.2
2018-May-26 18:30N 01°23' E 103°13'612.2
2018-May-26 18:00N 01°19' E 103°18'611.5
2018-May-26 17:30N 01°16' E 103°22'610.9
2018-May-26 16:59N 01°14' E 103°28'511.0
2018-May-26 16:30N 01°12' E 103°33'5 9.4
2018-May-26 16:00N 01°10' E 103°37'4 7.6
2018-May-26 15:28N 01°10' E 103°41'4 8.4
2018-May-26 15:00N 01°09' E 103°45'510.1
2018-May-26 14:30N 01°11' E 103°49'510.4
2018-May-26 14:00N 01°13' E 103°54'510.1
2018-May-26 13:30N 01°15' E 103°58'2 2.7
2018-May-26 12:54N 01°17' E 103°59'0 0.1
2018-May-26 12:24N 01°17' E 103°59'0 0.0
2018-May-26 11:57N 01°17' E 103°59'0 0.0
2018-May-26 11:27N 01°17' E 103°59'0 0.1
2018-May-26 10:54N 01°17' E 103°59'0 0.0
2018-May-26 10:27N 01°17' E 103°59'0 0.0
2018-May-26 09:33N 01°17' E 103°59'0 0.0
2018-May-26 09:27N 01°17' E 103°59'0 0.1
2018-May-26 08:57N 01°17' E 103°59'0 0.1
2018-May-26 08:27N 01°17' E 103°59'0 0.3
2018-May-26 07:45N 01°17' E 103°59'0 0.1
2018-May-26 07:27N 01°17' E 103°59'0 0.1
2018-May-26 06:54N 01°17' E 103°59'0 0.0
2018-May-26 06:30N 01°17' E 103°59'0 0.2
2018-May-26 05:27N 01°17' E 103°59'0 0.9
2018-May-26 05:00N 01°16' E 103°59'1 1.5
2018-May-26 04:31N 01°16' E 103°58'2 4.4
2018-May-26 04:00N 01°16' E 104°01'3 6.4
2018-May-26 03:30N 01°16' E 104°04'3 6.2
2018-May-26 03:00N 01°17' E 104°07'3 6.8
2018-May-26 02:30N 01°17' E 104°10'5 9.1
2018-May-26 01:59N 01°17' E 104°15'5 9.2
2018-May-26 01:28N 01°19' E 104°19'5 9.8
2018-May-26 00:58N 01°22' E 104°23'4 7.8
2018-May-26 00:29N 01°24' E 104°26'4 7.2
2018-May-25 23:59N 01°27' E 104°29'4 8.0
2018-May-25 23:27N 01°30' E 104°32'8 9.4
2018-May-25 22:38N 01°33' E 104°39'  
Track history (hours):
 
Tides and Currents Weather Stations Pressure Air Temp Water Temp Dewpoint Dewpoint Depression Visibility Wind Speed Wind Dir Waves Ship Positions

Navios Orbiter

Last reported at 2018-May-26 19:14 UTC. Time now 2018-Jun-23 10:06 UTC.
Position N 01°28' E 103°06'.
Warning: this ship's position is 27 days out of date.

Length 225 m; draft 14.2 m.

Type: Cargo ship. MMSI: 356276000.

Date/timePositionNaut miles runAvg speedWind from/ knotsBaromVisibWave heightAir tempDewpointWater temp
2018-May-26 19:14N 01°28' E 103°06'412.2
2018-May-26 18:55N 01°26' E 103°09'512.2
2018-May-26 18:30N 01°23' E 103°13'612.2
2018-May-26 18:00N 01°19' E 103°18'611.5
2018-May-26 17:30N 01°16' E 103°22'610.9
2018-May-26 16:59N 01°14' E 103°28'511.0
2018-May-26 16:30N 01°12' E 103°33'5 9.4
2018-May-26 16:00N 01°10' E 103°37'4 7.6
2018-May-26 15:28N 01°10' E 103°41'4 8.4
2018-May-26 15:00N 01°09' E 103°45'510.1
2018-May-26 14:30N 01°11' E 103°49'510.4
2018-May-26 14:00N 01°13' E 103°54'510.1
2018-May-26 13:30N 01°15' E 103°58'2 2.7
2018-May-26 12:54N 01°17' E 103°59'0 0.1
2018-May-26 12:24N 01°17' E 103°59'0 0.0
2018-May-26 11:57N 01°17' E 103°59'0 0.0
2018-May-26 11:27N 01°17' E 103°59'0 0.1
2018-May-26 10:54N 01°17' E 103°59'0 0.0
2018-May-26 10:27N 01°17' E 103°59'0 0.0
2018-May-26 09:33N 01°17' E 103°59'0 0.0
2018-May-26 09:27N 01°17' E 103°59'0 0.1
2018-May-26 08:57N 01°17' E 103°59'0 0.1
2018-May-26 08:27N 01°17' E 103°59'0 0.3
2018-May-26 07:45N 01°17' E 103°59'0 0.1
2018-May-26 07:27N 01°17' E 103°59'0 0.1
2018-May-26 06:54N 01°17' E 103°59'0 0.0
2018-May-26 06:30N 01°17' E 103°59'0 0.2
2018-May-26 05:27N 01°17' E 103°59'0 0.9
2018-May-26 05:00N 01°16' E 103°59'1 1.5
2018-May-26 04:31N 01°16' E 103°58'2 4.4
2018-May-26 04:00N 01°16' E 104°01'3 6.4
2018-May-26 03:30N 01°16' E 104°04'3 6.2
2018-May-26 03:00N 01°17' E 104°07'3 6.8
2018-May-26 02:30N 01°17' E 104°10'5 9.1
2018-May-26 01:59N 01°17' E 104°15'5 9.2
2018-May-26 01:28N 01°19' E 104°19'5 9.8
2018-May-26 00:58N 01°22' E 104°23'4 7.8
2018-May-26 00:29N 01°24' E 104°26'4 7.2
2018-May-25 23:59N 01°27' E 104°29'4 8.0
2018-May-25 23:27N 01°30' E 104°32'8 9.4
2018-May-25 22:38N 01°33' E 104°39'  

Dump ship's entire track history